Time;durP1;ratioP1;P1;durP2;ratioP2;P2;SDS_P1;SDS_P2;PMS_P1;PMS_P2;Temp;Humidity;BMP_temperature;BMP_pressure;BME280_temperature;BME280_humidity;BME280_pressure;Samples;Min_cycle;Max_cycle;Signal;HPM_P1;HPM_P2
2023/11/07 00:00:05;;;;;;;1.93;1.10;;;7.80;99.90;;;;;;4905379;29;20470;-69
2023/11/07 00:02:33;;;;;;;3.63;1.10;;;7.80;99.90;;;;;;4922151;29;20178;-70
2023/11/07 00:04:59;;;;;;;2.60;1.07;;;7.90;99.90;;;;;;4921431;29;20430;-70
2023/11/07 00:07:25;;;;;;;2.57;1.63;;;7.90;99.90;;;;;;4928547;29;20517;-70
2023/11/07 00:09:51;;;;;;;1.80;1.37;;;7.90;99.90;;;;;;4940211;29;20718;-71
2023/11/07 00:12:18;;;;;;;2.27;1.00;;;7.90;99.90;;;;;;4938987;29;20433;-70
2023/11/07 00:14:43;;;;;;;2.03;1.17;;;7.90;99.90;;;;;;4907882;29;20798;-70
2023/11/07 00:17:10;;;;;;;3.43;1.30;;;7.80;99.90;;;;;;4920988;29;20513;-70
2023/11/07 00:19:36;;;;;;;4.00;1.33;;;7.80;99.90;;;;;;4930619;29;20489;-70
2023/11/07 00:22:02;;;;;;;2.53;1.17;;;7.70;99.90;;;;;;4933973;29;20520;-74
2023/11/07 00:24:28;;;;;;;3.47;1.63;;;7.70;99.90;;;;;;4938973;29;20448;-71
2023/11/07 00:26:53;;;;;;;2.13;1.03;;;7.70;99.90;;;;;;4939505;29;20771;-70
2023/11/07 00:29:22;;;;;;;1.57;0.90;;;7.70;99.90;;;;;;4924505;29;20531;-70
2023/11/07 00:31:47;;;;;;;2.57;1.00;;;7.70;99.90;;;;;;4901418;29;20221;-71
2023/11/07 00:34:16;;;;;;;1.87;1.00;;;7.60;99.90;;;;;;4908371;29;21115;-70
2023/11/07 00:36:42;;;;;;;2.00;1.10;;;7.60;99.90;;;;;;4904234;29;20194;-71
2023/11/07 00:39:08;;;;;;;2.13;0.87;;;7.60;99.90;;;;;;4903503;29;20427;-69
2023/11/07 00:41:34;;;;;;;1.10;0.70;;;7.50;99.90;;;;;;4921186;29;20431;-69
2023/11/07 00:44:01;;;;;;;1.43;0.90;;;7.50;99.90;;;;;;4927254;29;20722;-71
2023/11/07 00:46:27;;;;;;;1.90;1.00;;;7.50;99.90;;;;;;4936898;29;20214;-70
2023/11/07 00:48:53;;;;;;;1.77;0.80;;;7.50;99.90;;;;;;4922860;29;20433;-68
2023/11/07 00:51:19;;;;;;;1.93;0.90;;;7.50;99.90;;;;;;4923721;29;20702;-70
2023/11/07 00:53:44;;;;;;;1.23;0.77;;;7.50;99.90;;;;;;4930442;29;20441;-69
2023/11/07 00:56:10;;;;;;;2.53;1.00;;;7.50;99.90;;;;;;4922261;29;20202;-69
2023/11/07 00:58:36;;;;;;;1.83;0.93;;;7.50;99.90;;;;;;4923127;29;20675;-71
2023/11/07 01:01:01;;;;;;;2.13;0.90;;;7.40;99.90;;;;;;4931955;29;20250;-70
2023/11/07 01:03:27;;;;;;;2.40;1.80;;;7.40;99.90;;;;;;4921203;29;20190;-70
2023/11/07 01:05:53;;;;;;;1.30;0.90;;;7.40;99.90;;;;;;4912790;29;21238;-70
2023/11/07 01:08:20;;;;;;;3.27;1.20;;;7.40;99.90;;;;;;4911100;29;20302;-69
2023/11/07 01:10:45;;;;;;;2.17;0.87;;;7.30;99.90;;;;;;4913909;29;20422;-70
2023/11/07 01:13:11;;;;;;;3.37;0.83;;;7.30;99.90;;;;;;4932350;29;20430;-70
2023/11/07 01:15:38;;;;;;;1.20;0.70;;;7.30;99.90;;;;;;4928702;29;20218;-69
2023/11/07 01:18:06;;;;;;;2.17;1.10;;;7.20;99.90;;;;;;4938268;29;20824;-69
2023/11/07 01:20:32;;;;;;;3.50;1.03;;;7.20;99.90;;;;;;4941571;29;20437;-69
2023/11/07 01:22:58;;;;;;;3.57;1.20;;;7.20;99.90;;;;;;4942366;29;20432;-69
2023/11/07 01:25:24;;;;;;;4.17;1.10;;;7.20;99.90;;;;;;4941633;29;20452;-70
2023/11/07 01:27:50;;;;;;;2.43;1.40;;;7.20;99.90;;;;;;4935015;29;20944;-71
2023/11/07 01:30:16;;;;;;;3.77;1.83;;;7.20;99.90;;;;;;4906525;29;20211;-70
2023/11/07 01:32:42;;;;;;;1.60;1.00;;;7.10;99.90;;;;;;4922392;29;20433;-70
2023/11/07 01:35:09;;;;;;;1.70;1.10;;;7.10;99.90;;;;;;4938142;29;20515;-70
2023/11/07 01:37:35;;;;;;;1.53;1.17;;;7.10;99.90;;;;;;4941762;29;20425;-71
2023/11/07 01:40:02;;;;;;;1.30;0.90;;;7.10;99.90;;;;;;4941855;29;20410;-70
2023/11/07 01:42:28;;;;;;;2.27;1.10;;;7.00;99.90;;;;;;4936438;29;20419;-70
2023/11/07 01:44:53;;;;;;;1.37;0.83;;;7.00;99.90;;;;;;4912837;29;20917;-70
2023/11/07 01:47:22;;;;;;;2.97;1.10;;;7.00;99.90;;;;;;4927738;29;20272;-70
2023/11/07 01:49:49;;;;;;;2.70;1.50;;;6.90;99.90;;;;;;4925599;29;20593;-69
2023/11/07 01:52:17;;;;;;;2.67;1.30;;;6.90;99.90;;;;;;4911611;29;20427;-69
2023/11/07 01:54:44;;;;;;;2.90;0.90;;;6.90;99.90;;;;;;4921934;29;20434;-68
2023/11/07 01:57:11;;;;;;;1.80;1.00;;;6.90;99.90;;;;;;4925191;29;20458;-71
2023/11/07 01:59:38;;;;;;;3.23;0.80;;;6.90;99.90;;;;;;4905657;29;20775;-69
2023/11/07 02:02:09;;;;;;;2.23;1.00;;;6.80;99.90;;;;;;4905436;29;20447;-69
2023/11/07 02:04:34;;;;;;;1.40;0.90;;;6.90;99.90;;;;;;4922038;29;20453;-70
2023/11/07 02:07:00;;;;;;;3.53;1.00;;;6.90;99.90;;;;;;4922516;29;20562;-68
2023/11/07 02:09:26;;;;;;;1.73;1.00;;;6.90;99.90;;;;;;4918131;29;20253;-69
2023/11/07 02:11:51;;;;;;;2.37;0.80;;;6.90;99.90;;;;;;4932874;29;20596;-71
2023/11/07 02:14:32;;;;;;;2.53;1.30;;;6.90;99.90;;;;;;4941287;29;20604;-70
2023/11/07 02:16:59;;;;;;;1.80;1.00;;;6.80;99.90;;;;;;4942049;29;20555;-69
2023/11/07 02:19:24;;;;;;;2.83;1.43;;;6.80;99.90;;;;;;4919456;29;20427;-70
2023/11/07 02:21:52;;;;;;;1.50;1.00;;;6.80;99.90;;;;;;4915203;29;21001;-68
2023/11/07 02:24:18;;;;;;;3.03;1.30;;;6.80;99.90;;;;;;4921814;29;20209;-69
2023/11/07 02:26:44;;;;;;;3.30;1.60;;;6.80;99.90;;;;;;4924868;29;20486;-69
2023/11/07 02:29:10;;;;;;;2.93;1.60;;;6.80;99.90;;;;;;4935876;29;20190;-69
2023/11/07 02:31:35;;;;;;;1.87;1.13;;;6.90;99.90;;;;;;4923129;29;20474;-69
2023/11/07 02:34:05;;;;;;;3.93;1.53;;;6.80;99.90;;;;;;4923548;29;20419;-70
2023/11/07 02:36:32;;;;;;;3.40;1.23;;;6.80;99.90;;;;;;4934705;29;20584;-70
2023/11/07 02:38:58;;;;;;;2.73;1.43;;;6.80;99.90;;;;;;4942427;29;20414;-69
2023/11/07 02:41:24;;;;;;;3.40;1.80;;;6.80;99.90;;;;;;4939763;29;20420;-69
2023/11/07 02:43:50;;;;;;;3.73;1.30;;;6.70;99.90;;;;;;4933417;29;20193;-69
2023/11/07 02:46:15;;;;;;;3.27;1.20;;;6.70;99.90;;;;;;4923173;29;20733;-69
2023/11/07 02:48:41;;;;;;;2.57;1.30;;;6.70;99.90;;;;;;4914173;29;20202;-70
2023/11/07 02:51:06;;;;;;;1.83;1.30;;;6.70;99.90;;;;;;4930723;29;20537;-70
2023/11/07 02:53:32;;;;;;;1.70;1.10;;;6.70;99.90;;;;;;4941158;29;20708;-69
2023/11/07 02:55:57;;;;;;;3.07;1.83;;;6.80;99.90;;;;;;4915804;29;20218;-69
2023/11/07 02:58:24;;;;;;;1.30;1.00;;;6.80;99.90;;;;;;4912455;29;20234;-70
2023/11/07 03:00:49;;;;;;;1.73;0.97;;;6.80;99.90;;;;;;4921448;29;20590;-69
2023/11/07 03:03:15;;;;;;;1.90;1.40;;;6.80;99.90;;;;;;4922142;29;20516;-68
2023/11/07 03:05:41;;;;;;;1.93;1.10;;;6.70;99.90;;;;;;4904306;29;20213;-69
2023/11/07 03:08:07;;;;;;;1.90;1.10;;;6.60;99.90;;;;;;4904110;29;20466;-68
2023/11/07 03:10:32;;;;;;;1.93;1.10;;;6.60;99.90;;;;;;4921232;29;20190;-69
2023/11/07 03:13:00;;;;;;;2.40;1.00;;;6.60;99.90;;;;;;4927859;29;20442;-69
2023/11/07 03:15:26;;;;;;;1.90;1.07;;;6.50;99.90;;;;;;4904076;29;20202;-70
2023/11/07 03:17:52;;;;;;;4.40;1.13;;;6.50;99.90;;;;;;4921137;29;20747;-68
2023/11/07 03:20:18;;;;;;;2.53;1.10;;;6.50;99.90;;;;;;4904154;29;20609;-68
2023/11/07 03:22:43;;;;;;;1.50;1.00;;;6.40;99.90;;;;;;4905230;29;20198;-69
2023/11/07 03:25:09;;;;;;;3.73;0.90;;;6.40;99.90;;;;;;4925008;29;20206;-69
2023/11/07 03:27:36;;;;;;;1.43;0.87;;;6.50;99.90;;;;;;4933929;29;20242;-70
2023/11/07 03:30:05;;;;;;;1.50;0.87;;;6.50;99.90;;;;;;4920810;29;20178;-70
2023/11/07 03:32:32;;;;;;;1.60;1.00;;;6.50;99.90;;;;;;4932725;29;20413;-70
2023/11/07 03:34:58;;;;;;;1.97;1.30;;;6.50;99.90;;;;;;4927471;29;20666;-70
2023/11/07 03:37:24;;;;;;;4.00;1.10;;;6.50;99.90;;;;;;4904819;29;20427;-70
2023/11/07 03:39:50;;;;;;;1.93;1.17;;;6.50;99.90;;;;;;4921034;29;20423;-70
2023/11/07 03:42:16;;;;;;;1.73;1.20;;;6.50;99.90;;;;;;4925727;29;20508;-69
2023/11/07 03:44:42;;;;;;;1.13;0.80;;;6.50;99.90;;;;;;4912112;29;20236;-70
2023/11/07 03:47:07;;;;;;;1.30;0.80;;;6.50;99.90;;;;;;4930740;29;20473;-71
2023/11/07 03:49:33;;;;;;;1.83;1.20;;;6.60;99.90;;;;;;4933907;29;20255;-69
2023/11/07 03:51:59;;;;;;;1.80;0.80;;;6.60;99.90;;;;;;4931636;29;20183;-69
2023/11/07 03:54:24;;;;;;;1.27;0.90;;;6.60;99.90;;;;;;4920296;29;20222;-70
2023/11/07 03:56:50;;;;;;;4.73;1.40;;;6.70;99.90;;;;;;4923953;29;20197;-69
2023/11/07 03:59:15;;;;;;;3.20;1.10;;;6.80;99.90;;;;;;4921137;29;20257;-69
2023/11/07 04:01:41;;;;;;;2.33;1.07;;;6.90;99.90;;;;;;4928708;29;20249;-72
2023/11/07 04:04:06;;;;;;;2.60;1.23;;;7.00;99.90;;;;;;4940073;29;20286;-68
2023/11/07 04:06:32;;;;;;;1.60;1.03;;;7.10;99.90;;;;;;4933240;29;20179;-69
2023/11/07 04:08:58;;;;;;;1.53;0.93;;;7.20;99.90;;;;;;4930793;29;20222;-70
2023/11/07 04:11:24;;;;;;;1.33;0.90;;;7.20;99.90;;;;;;4920252;29;20487;-71
2023/11/07 04:13:50;;;;;;;1.30;0.90;;;7.20;99.90;;;;;;4926116;29;20418;-70
2023/11/07 04:16:17;;;;;;;2.07;0.80;;;7.20;99.90;;;;;;4923565;29;20443;-70
2023/11/07 04:18:43;;;;;;;2.57;1.00;;;7.30;99.90;;;;;;4927150;29;20457;-70
2023/11/07 04:21:10;;;;;;;1.10;0.83;;;7.30;99.90;;;;;;4941971;29;20437;-69
2023/11/07 04:23:36;;;;;;;1.60;0.97;;;7.30;99.90;;;;;;4934364;29;20430;-69
2023/11/07 04:26:02;;;;;;;2.37;1.20;;;7.30;99.90;;;;;;4919796;29;20473;-69
2023/11/07 04:28:29;;;;;;;1.40;1.07;;;7.40;99.90;;;;;;4921740;29;20474;-69
2023/11/07 04:30:54;;;;;;;2.87;1.00;;;7.30;99.90;;;;;;4933829;29;20398;-71
2023/11/07 04:33:21;;;;;;;2.20;1.27;;;7.40;99.90;;;;;;4925826;29;20426;-69
2023/11/07 04:35:47;;;;;;;2.63;1.00;;;7.40;99.90;;;;;;4932537;29;20218;-70
2023/11/07 04:38:13;;;;;;;2.50;1.20;;;7.40;99.90;;;;;;4938996;29;20421;-69
2023/11/07 04:40:42;;;;;;;1.63;1.00;;;7.40;99.90;;;;;;4936927;29;20442;-68
2023/11/07 04:43:07;;;;;;;1.70;1.10;;;7.50;99.90;;;;;;4925900;29;20438;-69
2023/11/07 04:45:34;;;;;;;1.77;1.10;;;7.50;99.90;;;;;;4935084;29;20810;-70
2023/11/07 04:48:01;;;;;;;1.13;0.80;;;7.60;99.90;;;;;;4938633;29;20220;-70
2023/11/07 04:50:26;;;;;;;1.80;1.20;;;7.60;99.90;;;;;;4938838;29;20864;-70
2023/11/07 04:52:53;;;;;;;1.33;0.93;;;7.70;99.90;;;;;;4939298;29;20422;-69
2023/11/07 04:55:19;;;;;;;2.13;1.07;;;7.70;99.90;;;;;;4941983;29;20217;-70
2023/11/07 04:57:45;;;;;;;1.47;1.03;;;7.80;99.90;;;;;;4931769;29;20892;-70
2023/11/07 05:00:12;;;;;;;1.97;0.90;;;7.80;99.90;;;;;;4942651;29;20869;-71
2023/11/07 05:02:38;;;;;;;1.30;0.90;;;7.80;99.90;;;;;;4942322;29;20221;-71
2023/11/07 05:05:05;;;;;;;2.10;1.33;;;7.80;99.90;;;;;;4942476;29;20881;-70
2023/11/07 05:07:30;;;;;;;4.03;1.17;;;7.80;99.90;;;;;;4942176;29;20469;-70
2023/11/07 05:09:58;;;;;;;2.10;1.03;;;7.80;99.90;;;;;;4942499;29;20509;-71
2023/11/07 05:12:24;;;;;;;1.30;0.93;;;7.80;99.90;;;;;;4940065;29;20205;-71
2023/11/07 05:14:50;;;;;;;1.77;1.10;;;7.90;99.90;;;;;;4926199;29;20611;-71
2023/11/07 05:17:15;;;;;;;5.10;1.20;;;7.90;99.90;;;;;;4923917;29;20414;-70
2023/11/07 05:19:41;;;;;;;3.00;1.43;;;7.90;99.90;;;;;;4933718;29;20191;-70
2023/11/07 05:22:06;;;;;;;2.47;1.37;;;8.10;99.90;;;;;;4933670;29;20547;-72
2023/11/07 05:24:32;;;;;;;2.23;1.00;;;8.10;99.90;;;;;;4930671;29;20217;-72
2023/11/07 05:26:58;;;;;;;3.40;1.43;;;8.20;99.90;;;;;;4916313;29;20292;-71
2023/11/07 05:29:23;;;;;;;3.13;1.40;;;8.30;99.90;;;;;;4927436;29;20191;-71
2023/11/07 05:31:49;;;;;;;1.70;0.93;;;8.40;99.90;;;;;;4906986;29;20579;-70
2023/11/07 05:34:15;;;;;;;4.10;1.00;;;8.50;99.90;;;;;;4928432;29;20196;-71
2023/11/07 05:36:41;;;;;;;1.40;1.07;;;8.50;99.90;;;;;;4942428;29;20198;-70
2023/11/07 05:39:07;;;;;;;1.20;0.70;;;8.60;99.90;;;;;;4942442;29;20489;-70
2023/11/07 05:41:33;;;;;;;1.60;0.73;;;8.60;99.90;;;;;;4928996;29;20202;-71
2023/11/07 05:43:59;;;;;;;1.87;1.20;;;8.70;99.90;;;;;;4929378;29;20202;-71
2023/11/07 05:46:24;;;;;;;1.10;0.80;;;8.70;99.90;;;;;;4923016;29;20462;-70
2023/11/07 05:48:51;;;;;;;2.13;0.83;;;8.70;99.90;;;;;;4923331;29;20301;-68
2023/11/07 05:51:19;;;;;;;3.00;1.57;;;8.80;99.90;;;;;;4935657;29;20251;-70
2023/11/07 05:53:45;;;;;;;2.90;0.90;;;8.80;99.90;;;;;;4942886;29;20417;-70
2023/11/07 05:56:11;;;;;;;1.63;0.90;;;8.80;99.90;;;;;;4941195;29;20433;-71
2023/11/07 05:58:37;;;;;;;2.10;0.97;;;8.90;99.90;;;;;;4930790;29;20476;-71
2023/11/07 06:01:04;;;;;;;1.43;1.13;;;8.90;99.90;;;;;;4941209;29;20200;-70
2023/11/07 06:03:30;;;;;;;1.97;1.47;;;8.90;99.90;;;;;;4926358;29;20426;-70
2023/11/07 06:05:56;;;;;;;2.17;1.00;;;8.90;99.90;;;;;;4942522;29;20911;-70
2023/11/07 06:08:22;;;;;;;2.53;1.23;;;9.00;99.90;;;;;;4932221;29;20901;-72
2023/11/07 06:10:47;;;;;;;1.20;0.90;;;9.10;99.90;;;;;;4932654;29;20281;-69
2023/11/07 06:13:13;;;;;;;1.27;0.80;;;9.10;99.90;;;;;;4927598;29;20458;-73
2023/11/07 06:15:39;;;;;;;1.67;1.13;;;9.10;99.90;;;;;;4940897;29;20218;-71
2023/11/07 06:18:06;;;;;;;2.43;1.10;;;9.10;99.90;;;;;;4923823;29;20850;-71
2023/11/07 06:20:32;;;;;;;1.50;1.00;;;9.10;99.90;;;;;;4940797;29;20524;-71
2023/11/07 06:22:58;;;;;;;1.30;0.80;;;9.00;99.90;;;;;;4942657;29;20971;-71
2023/11/07 06:25:24;;;;;;;2.87;1.30;;;9.00;99.90;;;;;;4933308;29;20457;-74
2023/11/07 06:27:51;;;;;;;2.10;1.17;;;8.90;99.90;;;;;;4932400;29;20230;-72
2023/11/07 06:30:18;;;;;;;1.50;1.07;;;8.90;99.90;;;;;;4924728;29;20458;-71
2023/11/07 06:32:45;;;;;;;6.30;1.43;;;8.80;99.90;;;;;;4933914;29;20771;-71
2023/11/07 06:35:11;;;;;;;1.40;0.90;;;8.80;99.90;;;;;;4923910;29;20437;-73
2023/11/07 06:37:37;;;;;;;2.77;1.00;;;8.80;99.90;;;;;;4928182;29;20422;-70
2023/11/07 06:40:06;;;;;;;1.20;0.90;;;8.80;99.90;;;;;;4930794;29;20679;-74
2023/11/07 06:42:36;;;;;;;1.40;1.10;;;8.80;99.90;;;;;;4927431;29;20860;-71
2023/11/07 06:45:03;;;;;;;2.13;1.10;;;8.80;99.90;;;;;;4930162;29;20447;-74
2023/11/07 06:47:29;;;;;;;3.43;1.13;;;8.90;99.90;;;;;;4929623;29;20453;-73
2023/11/07 06:49:54;;;;;;;1.53;0.90;;;8.90;99.90;;;;;;4932546;29;20421;-72
2023/11/07 06:52:20;;;;;;;3.13;1.27;;;8.90;99.90;;;;;;4941894;29;20252;-72
2023/11/07 06:54:46;;;;;;;3.07;0.80;;;9.00;99.90;;;;;;4928585;29;20213;-70
2023/11/07 06:57:12;;;;;;;1.53;0.97;;;9.10;99.90;;;;;;4925929;29;20194;-72
2023/11/07 06:59:38;;;;;;;3.07;0.93;;;9.10;99.90;;;;;;4927404;29;20457;-72
2023/11/07 07:02:04;;;;;;;2.93;1.33;;;9.10;99.90;;;;;;4932712;29;20409;-70
2023/11/07 07:04:29;;;;;;;1.27;0.90;;;9.10;99.90;;;;;;4942026;29;20246;-73
2023/11/07 07:06:55;;;;;;;1.70;1.23;;;9.20;99.90;;;;;;4942084;29;20311;-72
2023/11/07 07:09:21;;;;;;;2.07;1.13;;;9.20;99.90;;;;;;4942003;29;20193;-73
2023/11/07 07:11:47;;;;;;;2.70;1.40;;;9.20;99.90;;;;;;4931056;29;20264;-72
2023/11/07 07:14:14;;;;;;;1.67;1.40;;;9.30;99.90;;;;;;4927044;29;20857;-71
2023/11/07 07:16:40;;;;;;;1.60;1.17;;;9.30;99.90;;;;;;4934963;29;20504;-73
2023/11/07 07:19:06;;;;;;;1.63;1.13;;;9.30;99.90;;;;;;4942610;29;20492;-73
2023/11/07 07:21:34;;;;;;;1.57;0.87;;;9.40;99.90;;;;;;4926162;29;20441;-73
2023/11/07 07:24:15;;;;;;;3.20;1.10;;;9.40;99.90;;;;;;4928209;29;20478;-76
2023/11/07 07:26:43;;;;;;;2.17;1.10;;;9.40;99.90;;;;;;4929334;29;20834;-72
2023/11/07 07:29:13;;;;;;;1.53;1.27;;;9.50;99.90;;;;;;4922551;29;20458;-73
2023/11/07 07:31:42;;;;;;;1.40;1.07;;;9.50;99.90;;;;;;4918391;29;20440;-73
2023/11/07 07:34:09;;;;;;;3.93;1.30;;;9.50;99.90;;;;;;4928665;29;20426;-73
2023/11/07 07:36:43;;;;;;;3.17;1.30;;;9.50;99.90;;;;;;4935144;29;20429;-72
2023/11/07 07:39:27;;;;;;;5.23;1.43;;;9.50;99.90;;;;;;4935049;29;20441;-72
2023/11/07 07:41:56;;;;;;;3.30;1.33;;;9.50;99.90;;;;;;4942013;29;20429;-70
2023/11/07 07:44:24;;;;;;;1.77;1.00;;;9.50;99.90;;;;;;4925622;29;20426;-71
2023/11/07 07:46:51;;;;;;;2.70;2.07;;;9.50;99.90;;;;;;4938381;29;20458;-73
2023/11/07 07:49:17;;;;;;;1.77;1.00;;;9.60;99.90;;;;;;4924408;29;20718;-72
2023/11/07 07:51:45;;;;;;;3.50;1.00;;;9.70;99.90;;;;;;4927734;29;20861;-72
2023/11/07 07:54:11;;;;;;;1.77;1.00;;;9.80;99.90;;;;;;4942023;29;20891;-72
2023/11/07 07:56:37;;;;;;;1.60;0.80;;;9.90;99.90;;;;;;4941489;29;20441;-72
2023/11/07 07:59:05;;;;;;;3.50;1.47;;;10.00;99.90;;;;;;4928543;29;20454;-76
2023/11/07 08:01:31;;;;;;;1.50;0.90;;;10.00;99.90;;;;;;4926820;29;20422;-74
2023/11/07 08:03:56;;;;;;;1.37;0.90;;;10.00;99.90;;;;;;4921262;29;20486;-71
2023/11/07 08:06:22;;;;;;;2.67;1.00;;;10.10;99.90;;;;;;4912775;29;20668;-71
2023/11/07 08:08:48;;;;;;;1.77;0.93;;;10.10;99.90;;;;;;4932640;29;20218;-72
2023/11/07 08:11:15;;;;;;;1.57;1.00;;;10.10;99.90;;;;;;4926951;29;20433;-73
2023/11/07 08:13:41;;;;;;;2.23;1.00;;;10.20;99.90;;;;;;4905481;29;20206;-71
2023/11/07 08:16:06;;;;;;;4.50;2.10;;;10.20;99.90;;;;;;4923705;29;20458;-71
2023/11/07 08:18:32;;;;;;;3.70;1.63;;;10.30;99.90;;;;;;4927763;29;20442;-72
2023/11/07 08:20:58;;;;;;;2.27;1.63;;;10.40;99.90;;;;;;4926012;29;20198;-72
2023/11/07 08:23:26;;;;;;;2.80;1.60;;;10.50;99.90;;;;;;4932331;29;20436;-72
2023/11/07 08:25:51;;;;;;;2.77;1.53;;;10.60;99.90;;;;;;4924051;29;20203;-73
2023/11/07 08:28:17;;;;;;;3.30;1.70;;;10.70;99.90;;;;;;4907431;29;20646;-72
2023/11/07 08:30:43;;;;;;;2.83;1.50;;;10.70;99.90;;;;;;4904812;29;20247;-75
2023/11/07 08:33:09;;;;;;;1.90;1.00;;;10.80;99.90;;;;;;4925961;29;20429;-73
2023/11/07 08:35:36;;;;;;;2.17;1.10;;;10.80;99.90;;;;;;4929534;29;20462;-74
2023/11/07 08:38:02;;;;;;;2.33;1.73;;;10.80;99.90;;;;;;4919389;29;20435;-74
2023/11/07 08:40:27;;;;;;;2.13;1.30;;;10.90;99.90;;;;;;4905237;29;20434;-75
2023/11/07 08:42:53;;;;;;;2.70;2.00;;;10.90;99.90;;;;;;4903318;29;20189;-73
2023/11/07 08:45:20;;;;;;;2.57;1.30;;;11.00;99.90;;;;;;4922006;29;20225;-74
2023/11/07 08:47:56;;;;;;;2.00;1.13;;;11.00;99.90;;;;;;4908071;29;20282;-75
2023/11/07 08:50:22;;;;;;;1.43;0.90;;;11.10;99.90;;;;;;4933887;29;20811;-75
2023/11/07 08:52:49;;;;;;;2.00;1.20;;;11.10;99.90;;;;;;4925313;29;20442;-76
2023/11/07 08:55:16;;;;;;;3.73;1.23;;;11.20;99.90;;;;;;4933269;29;20688;-76
2023/11/07 08:57:44;;;;;;;3.23;1.50;;;11.20;99.90;;;;;;4932305;29;20497;-75
2023/11/07 09:00:12;;;;;;;3.17;1.80;;;11.20;99.90;;;;;;4910239;29;20435;-73
2023/11/07 09:02:39;;;;;;;2.47;1.30;;;11.30;99.90;;;;;;4912377;29;20504;-74
2023/11/07 09:05:06;;;;;;;3.20;1.67;;;11.30;99.90;;;;;;4929863;29;20514;-73
2023/11/07 09:07:33;;;;;;;3.30;2.00;;;11.40;99.90;;;;;;4937860;29;20521;-76
2023/11/07 09:09:59;;;;;;;1.97;1.33;;;11.50;99.90;;;;;;4934603;29;20509;-74
2023/11/07 09:12:25;;;;;;;4.33;1.40;;;11.50;99.90;;;;;;4936865;29;20890;-72
2023/11/07 09:14:51;;;;;;;1.93;0.93;;;11.60;99.90;;;;;;4897016;29;20490;-71
2023/11/07 09:17:17;;;;;;;1.97;1.27;;;11.60;99.90;;;;;;4942658;29;20178;-74
2023/11/07 09:19:42;;;;;;;3.17;1.27;;;11.70;99.90;;;;;;4932897;29;20626;-74
2023/11/07 09:22:09;;;;;;;3.93;1.40;;;11.80;99.90;;;;;;4922460;29;20448;-75
2023/11/07 09:24:35;;;;;;;2.70;1.23;;;11.90;99.90;;;;;;4936675;29;20656;-75
2023/11/07 09:27:01;;;;;;;2.40;0.97;;;11.90;99.90;;;;;;4915830;29;20545;-76
2023/11/07 09:29:27;;;;;;;1.60;0.90;;;11.80;99.90;;;;;;4909183;29;20447;-77
2023/11/07 09:31:53;;;;;;;2.80;1.00;;;11.80;99.90;;;;;;4835619;29;20474;-75
2023/11/07 09:34:23;;;;;;;1.50;0.80;;;11.70;99.90;;;;;;4909117;29;20462;-76
2023/11/07 09:36:49;;;;;;;2.80;1.27;;;11.80;99.90;;;;;;4901895;29;20500;-74
2023/11/07 09:39:15;;;;;;;3.53;1.10;;;11.90;99.90;;;;;;4915867;29;20521;-73
2023/11/07 09:41:43;;;;;;;4.57;1.37;;;12.10;99.90;;;;;;4906716;29;20210;-73
2023/11/07 09:44:13;;;;;;;1.13;0.87;;;12.30;99.90;;;;;;4910858;29;20881;-73
2023/11/07 09:46:42;;;;;;;6.47;1.20;;;12.40;99.90;;;;;;4892139;29;20444;-73
2023/11/07 09:49:08;;;;;;;1.80;1.00;;;12.50;99.90;;;;;;4904962;29;20457;-75
2023/11/07 09:51:37;;;;;;;2.00;1.10;;;12.50;99.90;;;;;;4917202;29;20465;-71
2023/11/07 09:54:06;;;;;;;1.90;1.10;;;12.60;99.90;;;;;;4909526;29;20763;-75
2023/11/07 09:56:39;;;;;;;3.10;1.40;;;12.70;99.90;;;;;;4909495;29;20431;-75
2023/11/07 09:59:35;;;;;;;2.80;0.97;;;12.80;99.90;;;;;;4910660;29;20482;-74
2023/11/07 10:02:02;;;;;;;3.83;1.30;;;12.80;99.90;;;;;;4931387;29;20430;-72
2023/11/07 10:04:28;;;;;;;2.73;0.83;;;12.70;98.80;;;;;;4908295;29;20460;-76
2023/11/07 10:06:54;;;;;;;1.90;0.80;;;12.80;99.90;;;;;;4910384;29;20947;-73
2023/11/07 10:09:21;;;;;;;4.63;1.30;;;12.90;99.50;;;;;;4923333;29;20272;-69
2023/11/07 10:11:49;;;;;;;4.07;1.10;;;13.00;98.30;;;;;;4910904;29;20540;-71
2023/11/07 10:14:18;;;;;;;2.80;0.70;;;13.00;97.40;;;;;;4915267;29;20459;-69
2023/11/07 10:16:48;;;;;;;2.40;0.87;;;13.10;97.00;;;;;;4910416;29;20441;-70
2023/11/07 10:19:18;;;;;;;2.17;1.40;;;13.20;96.10;;;;;;4908417;29;20449;-69
2023/11/07 10:21:44;;;;;;;2.67;1.20;;;13.20;94.90;;;;;;4910481;29;20435;-71
2023/11/07 10:24:09;;;;;;;1.87;1.00;;;13.20;95.20;;;;;;4910197;29;20450;-69
2023/11/07 10:26:35;;;;;;;3.00;1.40;;;13.20;95.00;;;;;;4892878;29;20195;-71
2023/11/07 10:29:14;;;;;;;1.80;1.10;;;13.30;94.80;;;;;;4930239;29;20194;-70
2023/11/07 10:31:43;;;;;;;2.97;1.40;;;13.30;95.20;;;;;;4905958;29;20205;-71
2023/11/07 10:34:16;;;;;;;4.13;1.60;;;13.30;94.70;;;;;;4916869;29;20432;-72
2023/11/07 10:36:43;;;;;;;2.90;1.40;;;13.40;93.50;;;;;;4909249;29;20453;-70
2023/11/07 10:39:21;;;;;;;2.90;1.03;;;13.30;93.90;;;;;;4915228;29;20743;-71
2023/11/07 10:41:47;;;;;;;2.60;1.30;;;13.30;94.00;;;;;;4906708;29;20462;-67
2023/11/07 10:44:24;;;;;;;2.43;1.50;;;13.20;94.10;;;;;;4896300;29;20258;-78
2023/11/07 10:46:57;;;;;;;4.20;1.07;;;13.20;94.30;;;;;;4921499;29;20531;-78
2023/11/07 10:49:25;;;;;;;1.70;1.20;;;13.30;94.20;;;;;;4897067;29;20497;-77
2023/11/07 10:51:52;;;;;;;2.90;0.93;;;13.40;93.30;;;;;;4951763;28;20494;-77
2023/11/07 10:54:21;;;;;;;3.60;0.93;;;13.40;91.40;;;;;;4931153;29;20441;-80
2023/11/07 10:56:49;;;;;;;11.43;2.63;;;13.40;90.00;;;;;;4939750;29;20411;-76
2023/11/07 10:59:25;;;;;;;3.97;1.60;;;13.40;87.10;;;;;;4913625;29;20458;-79
2023/11/07 11:01:52;;;;;;;2.30;1.20;;;13.40;86.70;;;;;;4952019;28;20470;-77
2023/11/07 11:04:20;;;;;;;2.70;1.47;;;13.40;87.00;;;;;;4928558;29;20434;-76
2023/11/07 11:07:00;;;;;;;1.70;1.03;;;13.40;85.70;;;;;;4925320;29;20441;-78
2023/11/07 11:09:27;;;;;;;3.17;1.60;;;13.40;86.90;;;;;;4922455;29;20431;-79
2023/11/07 11:11:58;;;;;;;2.57;1.30;;;13.30;86.20;;;;;;4905071;29;20768;-77
2023/11/07 11:14:25;;;;;;;1.97;1.23;;;13.20;86.00;;;;;;4912401;29;20424;-76
2023/11/07 11:16:55;;;;;;;2.50;0.93;;;13.20;85.80;;;;;;4899746;29;20466;-77
2023/11/07 11:19:33;;;;;;;2.50;1.13;;;13.30;84.30;;;;;;4913193;29;20446;-76
2023/11/07 11:22:36;;;;;;;6.13;1.47;;;13.20;81.00;;;;;;4918132;29;20522;-77
2023/11/07 11:25:40;;;;;;;3.10;1.10;;;13.30;80.90;;;;;;4895960;29;20459;-80
2023/11/07 11:28:06;;;;;;;4.70;1.20;;;13.30;79.60;;;;;;4916167;29;20458;-76
2023/11/07 11:30:37;;;;;;;6.23;3.30;;;13.40;75.00;;;;;;4898516;29;20442;-80
2023/11/07 11:33:11;;;;;;;6.03;2.60;;;13.40;74.00;;;;;;4900323;29;20439;-79
2023/11/07 11:35:43;;;;;;;7.50;1.70;;;13.50;74.50;;;;;;4927444;29;20463;-77
2023/11/07 11:38:23;;;;;;;1.63;0.90;;;13.60;73.50;;;;;;4902387;29;20704;-78
2023/11/07 11:40:50;;;;;;;3.13;1.10;;;13.70;71.20;;;;;;4896848;29;20491;-72
2023/11/07 11:43:25;;;;;;;3.43;1.00;;;13.80;68.70;;;;;;4896319;29;20447;-77
2023/11/07 11:45:52;;;;;;;2.80;1.00;;;13.40;69.30;;;;;;4882156;29;20517;-77
2023/11/07 11:48:39;;;;;;;2.60;1.10;;;13.20;71.00;;;;;;4880603;29;20463;-79
2023/11/07 11:51:35;;;;;;;2.97;1.20;;;13.00;72.00;;;;;;4871544;29;20428;-77
2023/11/07 11:54:02;;;;;;;2.47;1.40;;;12.70;73.00;;;;;;4883631;29;20451;-77
2023/11/07 11:56:28;;;;;;;6.00;2.00;;;12.60;74.20;;;;;;4868020;29;20447;-77
2023/11/07 11:59:05;;;;;;;3.30;1.30;;;12.50;75.10;;;;;;4897723;29;20490;-76
2023/11/07 12:01:48;;;;;;;2.87;1.77;;;12.50;76.00;;;;;;4908254;29;20447;-76
2023/11/07 12:04:36;;;;;;;2.97;1.53;;;12.50;76.90;;;;;;4899119;29;20455;-78
2023/11/07 12:07:10;;;;;;;4.07;1.50;;;12.60;77.60;;;;;;4911470;29;20505;-79
2023/11/07 12:09:37;;;;;;;1.97;1.00;;;12.70;77.10;;;;;;4896545;29;20480;-79
2023/11/07 12:12:04;;;;;;;3.63;1.10;;;12.70;76.90;;;;;;4893375;29;20973;-78
2023/11/07 12:14:30;;;;;;;2.00;1.03;;;12.70;76.70;;;;;;4882791;29;20449;-79
2023/11/07 12:16:56;;;;;;;1.90;1.20;;;12.60;76.90;;;;;;4902343;29;20410;-79
2023/11/07 12:19:23;;;;;;;4.27;1.53;;;12.70;77.10;;;;;;4922020;29;20482;-79
2023/11/07 12:22:08;;;;;;;6.43;1.30;;;12.90;76.60;;;;;;4940116;29;20495;-80
2023/11/07 12:24:35;;;;;;;1.47;1.07;;;13.10;76.40;;;;;;4935631;28;20447;-79
2023/11/07 12:27:01;;;;;;;1.67;1.03;;;13.30;74.70;;;;;;4907922;29;20458;-80
2023/11/07 12:29:32;;;;;;;2.60;1.23;;;13.50;74.00;;;;;;4910098;29;20541;-80
2023/11/07 12:31:58;;;;;;;2.90;1.10;;;13.60;71.00;;;;;;4898910;29;20187;-79
2023/11/07 12:34:34;;;;;;;10.27;1.93;;;13.50;69.90;;;;;;4903978;29;20428;-80
2023/11/07 12:37:22;;;;;;;5.93;1.50;;;13.50;69.60;;;;;;4902068;29;20906;-79
2023/11/07 12:39:51;;;;;;;4.20;1.20;;;13.40;69.40;;;;;;4910966;29;20418;-78
2023/11/07 12:42:18;;;;;;;4.67;1.27;;;13.30;69.50;;;;;;4891207;29;20451;-78
2023/11/07 12:44:45;;;;;;;2.90;1.07;;;13.20;70.80;;;;;;4907944;29;20446;-80
2023/11/07 12:47:11;;;;;;;2.03;1.03;;;13.10;71.80;;;;;;4911092;29;20501;-80
2023/11/07 12:49:38;;;;;;;2.33;1.17;;;13.10;73.80;;;;;;4906053;29;20461;-71
2023/11/07 12:52:11;;;;;;;3.97;1.07;;;13.10;75.40;;;;;;4906796;29;20434;-72
2023/11/07 12:54:37;;;;;;;1.70;0.93;;;13.10;76.00;;;;;;4914333;29;20475;-70